Time;durP1;ratioP1;P1;durP2;ratioP2;P2;SDS_P1;SDS_P2;PMS_P1;PMS_P2;Temp;Humidity;BMP_temperature;BMP_pressure;BME280_temperature;BME280_humidity;BME280_pressure;Samples;Min_cycle;Max_cycle;Signal;HPM_P1;HPM_P2
2023/10/13 00:01:43;;;;;;;66.72;37.88;;;16.30;99.90;;;;;;5056128;28;20507;-57
2023/10/13 00:04:08;;;;;;;63.30;35.80;;;17.00;99.90;;;;;;5056078;28;20040;-58
2023/10/13 00:06:34;;;;;;;60.08;35.40;;;16.90;99.90;;;;;;5065002;28;20170;-58
2023/10/13 00:09:00;;;;;;;56.10;33.78;;;16.90;99.90;;;;;;5053862;28;20063;-58
2023/10/13 00:11:26;;;;;;;76.93;29.15;;;16.70;99.90;;;;;;5054011;28;20052;-58
2023/10/13 00:13:54;;;;;;;63.05;35.55;;;16.90;99.90;;;;;;5053484;28;21319;-58
2023/10/13 00:16:21;;;;;;;61.70;34.72;;;16.80;99.90;;;;;;5055669;28;20047;-58
2023/10/13 00:18:54;;;;;;;72.70;36.78;;;16.40;99.90;;;;;;5053469;28;20037;-58
2023/10/13 00:21:31;;;;;;;61.50;35.72;;;16.90;99.90;;;;;;5053513;28;20325;-59
2023/10/13 00:24:00;;;;;;;54.33;34.38;;;16.90;99.90;;;;;;5073418;28;20369;-57
2023/10/13 00:26:27;;;;;;;61.65;35.80;;;16.70;99.90;;;;;;5073673;28;20048;-57
2023/10/13 00:29:16;;;;;;;62.30;34.53;;;16.70;99.90;;;;;;5073691;28;20044;-58
2023/10/13 00:31:48;;;;;;;60.67;35.70;;;17.00;99.90;;;;;;5073607;28;20040;-58
2023/10/13 00:36:48;;;;;;;68.82;31.45;;;17.00;99.90;;;;;;5053497;28;20151;-57
2023/10/13 00:39:15;;;;;;;61.92;34.97;;;16.80;99.90;;;;;;5053808;28;20044;-57
2023/10/13 00:41:52;;;;;;;74.55;29.17;;;17.00;99.90;;;;;;5053372;28;20037;-59
2023/10/13 00:44:37;;;;;;;74.18;37.10;;;17.00;99.90;;;;;;5092231;28;20506;-58
2023/10/13 00:47:07;;;;;;;67.68;36.97;;;16.30;99.90;;;;;;5093558;28;20056;-58
2023/10/13 00:49:39;;;;;;;68.05;36.95;;;16.40;99.90;;;;;;5093261;28;20044;-58
2023/10/13 00:52:10;;;;;;;69.70;37.75;;;16.30;99.90;;;;;;5093422;28;20075;-58
2023/10/13 00:54:37;;;;;;;64.20;37.80;;;16.30;99.90;;;;;;5093924;28;20044;-58
2023/10/13 00:57:07;;;;;;;76.22;39.65;;;16.50;99.90;;;;;;5093204;28;20369;-57
2023/10/13 00:59:36;;;;;;;70.75;39.85;;;16.50;99.90;;;;;;5053165;28;20399;-57
2023/10/13 01:02:37;;;;;;;70.63;28.90;;;16.70;99.90;;;;;;5052913;28;20041;-57
2023/10/13 01:04:49;;;;;;;62.20;38.97;;;17.10;99.90;;;;;;5052706;28;20041;-57
2023/10/13 01:07:22;;;;;;;65.28;39.22;;;17.00;99.90;;;;;;5052650;28;20068;-58
2023/10/13 01:09:47;;;;;;;63.63;38.67;;;16.40;99.90;;;;;;5054289;28;20033;-58
2023/10/13 01:12:14;;;;;;;55.92;37.45;;;17.10;99.90;;;;;;5050663;28;20510;-57
2023/10/13 01:14:40;;;;;;;62.47;37.85;;;17.20;99.90;;;;;;5054516;28;20036;-57
2023/10/13 01:17:06;;;;;;;61.75;37.20;;;17.10;99.90;;;;;;5071502;28;20458;-57
2023/10/13 01:19:42;;;;;;;56.78;27.45;;;16.90;99.90;;;;;;5072640;28;20071;-58
2023/10/13 01:22:08;;;;;;;54.92;36.35;;;16.90;99.90;;;;;;5072824;28;20040;-58
2023/10/13 01:24:37;;;;;;;54.00;27.35;;;16.90;99.90;;;;;;5054375;28;20043;-58
2023/10/13 01:27:20;;;;;;;56.97;36.05;;;16.80;99.90;;;;;;5072200;28;20036;-58
2023/10/13 01:29:50;;;;;;;51.20;34.10;;;16.60;99.90;;;;;;5058574;28;20456;-57
2023/10/13 01:32:18;;;;;;;59.13;36.55;;;16.40;99.90;;;;;;5052249;28;20393;-59
2023/10/13 01:34:49;;;;;;;52.45;34.90;;;16.40;99.90;;;;;;5072148;28;20040;-58
2023/10/13 01:37:16;;;;;;;58.20;27.70;;;16.60;99.90;;;;;;5054355;28;20068;-58
2023/10/13 01:39:42;;;;;;;59.60;35.65;;;16.40;99.90;;;;;;5071912;28;20115;-59
2023/10/13 01:42:08;;;;;;;51.67;34.75;;;16.80;99.90;;;;;;5068307;28;20123;-58
2023/10/13 01:44:33;;;;;;;54.40;35.45;;;16.90;99.90;;;;;;5061320;28;20470;-58
2023/10/13 01:47:07;;;;;;;63.03;37.67;;;17.00;99.90;;;;;;5057185;28;20053;-58
2023/10/13 01:49:42;;;;;;;52.97;35.28;;;16.50;99.90;;;;;;5051140;28;20462;-58
2023/10/13 01:52:11;;;;;;;62.75;38.15;;;16.50;99.90;;;;;;5072003;28;20036;-58
2023/10/13 01:54:41;;;;;;;54.92;35.90;;;17.10;99.90;;;;;;5068933;28;20044;-59
2023/10/13 01:57:19;;;;;;;54.63;35.17;;;17.10;99.90;;;;;;5050121;28;20041;-59
2023/10/13 01:59:47;;;;;;;53.00;34.80;;;16.60;99.90;;;;;;5062805;28;20036;-59
2023/10/13 02:02:13;;;;;;;63.67;37.70;;;17.10;99.90;;;;;;5068329;28;20055;-58
2023/10/13 02:04:56;;;;;;;57.70;35.85;;;16.90;99.90;;;;;;5071471;28;20049;-57
2023/10/13 02:07:27;;;;;;;61.08;35.92;;;16.50;99.90;;;;;;5070963;28;20040;-58
2023/10/13 02:09:55;;;;;;;57.55;34.97;;;16.80;99.90;;;;;;5072228;28;20051;-58
2023/10/13 02:12:29;;;;;;;55.50;34.35;;;17.10;99.90;;;;;;5070798;28;20040;-57
2023/10/13 02:14:54;;;;;;;54.00;33.80;;;16.50;99.90;;;;;;5071372;28;20044;-58
2023/10/13 02:17:21;;;;;;;56.22;33.60;;;16.30;99.90;;;;;;5071382;28;20614;-57
2023/10/13 02:19:47;;;;;;;57.58;33.10;;;17.10;99.90;;;;;;5071269;28;20361;-59
2023/10/13 02:22:28;;;;;;;50.30;32.35;;;17.00;99.90;;;;;;5071777;28;20438;-58
2023/10/13 02:25:01;;;;;;;48.63;31.88;;;17.10;99.90;;;;;;5071132;28;20048;-57
2023/10/13 02:27:27;;;;;;;49.72;31.38;;;17.00;99.90;;;;;;5071143;28;20102;-58
2023/10/13 02:29:58;;;;;;;50.33;32.50;;;16.70;99.90;;;;;;5053133;28;20450;-58
2023/10/13 02:32:26;;;;;;;47.67;22.63;;;16.50;99.90;;;;;;5071058;28;20115;-58
2023/10/13 02:34:52;;;;;;;46.17;29.80;;;16.50;99.90;;;;;;5071478;28;20032;-58
2023/10/13 02:37:19;;;;;;;43.83;28.58;;;16.60;99.90;;;;;;5051523;28;20045;-58
2023/10/13 02:39:45;;;;;;;49.95;22.40;;;16.50;99.90;;;;;;5070363;28;20036;-58
2023/10/13 02:42:23;;;;;;;44.17;28.73;;;17.20;99.90;;;;;;5053369;28;20036;-57
2023/10/13 02:44:50;;;;;;;45.92;28.20;;;16.50;99.90;;;;;;5069417;28;20403;-58
2023/10/13 02:47:18;;;;;;;50.40;29.27;;;16.40;99.90;;;;;;5070313;28;20053;-58
2023/10/13 02:49:47;;;;;;;53.83;30.13;;;17.10;99.90;;;;;;5070333;28;20502;-58
2023/10/13 02:52:13;;;;;;;56.40;30.08;;;17.00;99.90;;;;;;5071093;28;20408;-57
2023/10/13 02:54:43;;;;;;;53.55;30.58;;;16.40;99.90;;;;;;5070630;28;20044;-57
2023/10/13 02:57:08;;;;;;;55.35;30.75;;;16.80;99.90;;;;;;5070633;28;20039;-58
2023/10/13 02:59:34;;;;;;;58.80;31.92;;;17.10;99.90;;;;;;5071064;28;20032;-58
2023/10/13 03:04:48;;;;;;;59.53;31.85;;;16.50;99.90;;;;;;5070848;28;20044;-58
2023/10/13 03:07:22;;;;;;;55.53;32.63;;;17.10;99.90;;;;;;5062135;28;20048;-58
2023/10/13 03:09:52;;;;;;;61.13;33.40;;;16.40;99.90;;;;;;5050839;28;20037;-58
2023/10/13 03:12:18;;;;;;;52.70;32.30;;;16.40;99.90;;;;;;5050056;28;20037;-59
2023/10/13 03:14:55;;;;;;;62.92;33.90;;;16.70;99.90;;;;;;5049333;28;20051;-58
2023/10/13 03:17:33;;;;;;;58.50;32.65;;;16.70;99.90;;;;;;5050843;28;20043;-57
2023/10/13 03:19:59;;;;;;;51.83;31.27;;;16.90;99.90;;;;;;5032163;28;20045;-58
2023/10/13 03:22:32;;;;;;;56.40;32.42;;;16.50;99.90;;;;;;5050584;28;20120;-57
2023/10/13 03:25:17;;;;;;;57.88;32.53;;;16.50;99.90;;;;;;5051317;28;20041;-58
2023/10/13 03:30:20;;;;;;;54.30;32.80;;;16.40;99.90;;;;;;5090435;28;20050;-59
2023/10/13 03:32:48;;;;;;;49.55;32.25;;;17.10;99.90;;;;;;5090463;28;20039;-58
2023/10/13 03:35:24;;;;;;;50.55;31.85;;;17.10;99.90;;;;;;5090338;28;20044;-57
2023/10/13 03:37:53;;;;;;;55.90;32.85;;;16.90;99.90;;;;;;5090814;28;20072;-58
2023/10/13 03:43:04;;;;;;;53.33;33.53;;;16.40;99.90;;;;;;5072144;28;20032;-58
2023/10/13 03:45:52;;;;;;;53.80;32.92;;;17.10;99.90;;;;;;5090821;28;20449;-57
2023/10/13 03:51:06;;;;;;;49.38;31.58;;;16.30;99.90;;;;;;5050145;28;20037;-58
2023/10/13 03:53:33;;;;;;;49.30;31.92;;;17.10;99.90;;;;;;5049864;28;20126;-58
2023/10/13 03:56:14;;;;;;;47.08;30.33;;;17.00;99.90;;;;;;5064819;28;20055;-58
2023/10/13 03:58:47;;;;;;;45.72;29.65;;;16.30;99.90;;;;;;5050487;28;20037;-57
2023/10/13 04:01:17;;;;;;;49.60;31.60;;;17.10;99.90;;;;;;5050324;28;20079;-59
2023/10/13 04:17:29;;;;;;;50.33;32.38;;;16.70;99.90;;;;;;5049535;28;20071;-58
2023/10/13 04:25:35;;;;;;;57.38;21.70;;;16.80;99.90;;;;;;5073623;28;20740;-58
2023/10/13 04:28:50;;;;;;;51.72;31.02;;;16.90;99.90;;;;;;5068039;28;20041;-59
2023/10/13 04:33:43;;;;;;;47.78;30.58;;;16.50;99.90;;;;;;5073572;28;20072;-58
2023/10/13 04:36:14;;;;;;;45.50;30.55;;;16.20;99.90;;;;;;5055403;28;20041;-59
2023/10/13 04:41:42;;;;;;;44.65;29.63;;;16.60;99.90;;;;;;5053505;28;20037;-58
2023/10/13 04:52:12;;;;;;;44.38;30.10;;;16.30;99.90;;;;;;5073121;28;20079;-59
2023/10/13 04:57:34;;;;;;;47.60;31.38;;;16.90;99.90;;;;;;5072588;28;20127;-60
2023/10/13 05:52:06;;;;;;;24.05;19.27;;;16.80;99.90;;;;;;5049971;28;20405;-59
2023/10/13 06:30:14;;;;;;;11.13;9.10;;;17.10;99.90;;;;;;5071353;28;19999;-58
2023/10/13 06:32:39;;;;;;;14.25;9.63;;;17.10;99.90;;;;;;5053114;28;20540;-58
2023/10/13 06:35:15;;;;;;;15.02;10.23;;;16.90;99.90;;;;;;5071448;28;20047;-58
2023/10/13 06:37:42;;;;;;;12.50;9.40;;;16.50;99.90;;;;;;5071437;28;20028;-58
2023/10/13 06:42:46;;;;;;;16.05;8.52;;;16.70;99.90;;;;;;5067761;28;20499;-59
2023/10/13 06:45:12;;;;;;;17.40;7.60;;;17.30;99.90;;;;;;5064689;28;20056;-59
2023/10/13 06:47:45;;;;;;;17.35;7.97;;;16.60;99.90;;;;;;5069005;28;20060;-59
2023/10/13 06:50:24;;;;;;;12.82;6.93;;;17.40;99.90;;;;;;5068347;28;20083;-58
2023/10/13 06:52:54;;;;;;;13.68;6.93;;;16.90;99.90;;;;;;5070992;28;20047;-59
2023/10/13 06:55:27;;;;;;;13.18;6.70;;;17.20;99.90;;;;;;5036712;28;20047;-59
2023/10/13 06:57:59;;;;;;;12.33;6.80;;;16.50;99.90;;;;;;5070861;28;20450;-58
2023/10/13 07:00:34;;;;;;;14.32;8.27;;;17.40;99.90;;;;;;5053580;28;20037;-59
2023/10/13 07:03:13;;;;;;;14.50;7.93;;;17.10;99.90;;;;;;5058402;28;20131;-58
2023/10/13 07:05:41;;;;;;;15.57;7.50;;;17.30;99.90;;;;;;5058545;28;20166;-59
2023/10/13 07:08:08;;;;;;;14.30;7.57;;;17.40;99.90;;;;;;5057603;28;20032;-58
2023/10/13 07:10:51;;;;;;;16.05;8.43;;;16.80;99.90;;;;;;5054625;28;20033;-58
2023/10/13 07:13:19;;;;;;;20.10;6.75;;;17.30;99.90;;;;;;5042688;28;20101;-58
2023/10/13 07:15:45;;;;;;;11.05;7.53;;;17.10;99.90;;;;;;5042813;28;20111;-58
2023/10/13 07:18:17;;;;;;;19.08;9.57;;;16.60;99.90;;;;;;5058437;28;20039;-58
2023/10/13 07:20:45;;;;;;;14.20;8.32;;;16.60;99.90;;;;;;5058071;28;20491;-59
2023/10/13 07:23:17;;;;;;;18.88;9.90;;;17.50;99.90;;;;;;5054882;28;20029;-58
2023/10/13 07:25:51;;;;;;;19.73;10.32;;;16.70;99.90;;;;;;5057157;28;20075;-58
2023/10/13 07:28:17;;;;;;;17.52;11.55;;;17.00;99.90;;;;;;5059589;28;20040;-59
2023/10/13 07:33:21;;;;;;;17.98;12.77;;;16.80;99.90;;;;;;5056676;28;20094;-59
2023/10/13 07:36:17;;;;;;;19.52;12.50;;;17.00;99.90;;;;;;5056766;28;20033;-58
2023/10/13 07:38:48;;;;;;;17.25;11.23;;;16.70;99.90;;;;;;5055114;28;20036;-58
2023/10/13 07:41:21;;;;;;;18.85;10.63;;;17.10;99.90;;;;;;5059427;28;20068;-59
2023/10/13 07:43:50;;;;;;;22.40;11.15;;;16.90;99.90;;;;;;5058554;28;20111;-59
2023/10/13 07:46:16;;;;;;;15.65;9.88;;;17.00;99.90;;;;;;5053842;28;20066;-59
2023/10/13 07:48:45;;;;;;;15.75;9.60;;;17.50;99.90;;;;;;5052290;28;20045;-58
2023/10/13 07:51:15;;;;;;;17.50;9.18;;;17.40;99.90;;;;;;5054860;28;20079;-57
2023/10/13 07:53:43;;;;;;;17.90;8.93;;;17.20;99.90;;;;;;5053032;28;20040;-59
2023/10/13 07:56:11;;;;;;;16.73;9.05;;;17.40;99.90;;;;;;5056447;28;20044;-59
2023/10/13 07:58:52;;;;;;;14.70;8.40;;;17.40;99.90;;;;;;5041706;28;20029;-59
2023/10/13 08:01:21;;;;;;;15.63;9.48;;;16.70;99.90;;;;;;5054723;28;20381;-59
2023/10/13 08:03:47;;;;;;;18.52;9.60;;;17.40;99.90;;;;;;5054279;28;20049;-59
2023/10/13 08:08:43;;;;;;;20.55;10.13;;;17.40;99.90;;;;;;5055141;28;20075;-58
2023/10/13 08:13:58;;;;;;;19.20;10.43;;;16.80;99.90;;;;;;5058831;28;20048;-58
2023/10/13 08:16:52;;;;;;;19.20;10.82;;;17.20;99.90;;;;;;5055858;28;20025;-58
2023/10/13 08:19:39;;;;;;;18.95;12.02;;;17.10;99.90;;;;;;5055898;28;20038;-59
2023/10/13 08:45:20;;;;;;;20.40;14.27;;;17.80;99.90;;;;;;5055532;28;20036;-58
2023/10/13 08:53:28;;;;;;;17.73;11.25;;;18.30;99.90;;;;;;5060440;28;20052;-59
2023/10/13 09:01:34;;;;;;;17.17;9.63;;;18.30;99.90;;;;;;5052440;28;20492;-59
2023/10/13 09:04:20;;;;;;;13.30;8.25;;;17.90;99.90;;;;;;5059127;28;20345;-58
2023/10/13 09:07:07;;;;;;;13.65;7.72;;;17.90;99.90;;;;;;5059901;28;20575;-58
2023/10/13 09:12:35;;;;;;;11.30;7.57;;;18.60;99.90;;;;;;5057628;28;20094;-58
2023/10/13 09:15:05;;;;;;;;;;;18.30;99.90;;;;;;5057132;28;20044;-59
2023/10/13 09:17:35;;;;;;;16.35;8.40;;;18.70;99.90;;;;;;5052648;28;19917;-59
2023/10/13 09:25:38;;;;;;;12.00;7.13;;;18.20;99.90;;;;;;5062713;28;20042;-59
2023/10/13 09:28:10;;;;;;;17.90;6.65;;;18.80;99.90;;;;;;5057503;28;20135;-57
2023/10/13 09:30:46;;;;;;;15.50;8.07;;;18.70;99.90;;;;;;5055401;28;20048;-58
2023/10/13 09:33:15;;;;;;;17.15;8.77;;;18.70;99.90;;;;;;5050754;28;20120;-58
2023/10/13 09:35:51;;;;;;;14.07;7.72;;;18.50;99.90;;;;;;5053795;28;20049;-58
2023/10/13 09:38:17;;;;;;;14.77;7.90;;;18.10;99.90;;;;;;5052365;28;20043;-57
2023/10/13 09:40:50;;;;;;;15.68;7.50;;;18.80;99.90;;;;;;5055774;28;20419;-60
2023/10/13 09:43:18;;;;;;;15.43;8.25;;;18.30;99.90;;;;;;5051738;28;20037;-59
2023/10/13 09:46:02;;;;;;;16.30;7.60;;;18.20;99.90;;;;;;5054445;28;20044;-57
2023/10/13 09:48:32;;;;;;;13.85;6.68;;;18.10;99.90;;;;;;5054784;28;20095;-59
2023/10/13 09:51:02;;;;;;;14.35;7.28;;;18.80;99.90;;;;;;5038511;28;20036;-58
2023/10/13 09:53:30;;;;;;;15.40;6.47;;;18.60;99.90;;;;;;5053880;28;20037;-59
2023/10/13 09:56:12;;;;;;;14.38;7.53;;;18.30;99.90;;;;;;5056599;28;20369;-59
2023/10/13 09:58:57;;;;;;;11.05;6.20;;;18.60;99.90;;;;;;5052149;28;20068;-59
2023/10/13 10:01:37;;;;;;;13.95;7.00;;;18.70;99.90;;;;;;5054797;28;20379;-59
2023/10/13 10:04:16;;;;;;;17.88;7.35;;;18.70;99.90;;;;;;5050791;28;20032;-59
2023/10/13 10:06:54;;;;;;;13.82;7.03;;;18.40;99.90;;;;;;5050962;28;20025;-59
2023/10/13 10:09:36;;;;;;;20.17;7.55;;;19.00;99.90;;;;;;5054368;28;20046;-59
2023/10/13 10:12:26;;;;;;;13.63;7.22;;;18.90;99.90;;;;;;5052268;28;20048;-58
2023/10/13 10:15:06;;;;;;;15.10;6.53;;;19.10;99.90;;;;;;5049399;28;20041;-58
2023/10/13 10:17:42;;;;;;;15.52;7.55;;;18.90;99.90;;;;;;5053206;28;20392;-59
2023/10/13 10:20:19;;;;;;;20.35;7.30;;;19.20;99.90;;;;;;5053498;28;20056;-59
2023/10/13 10:22:59;;;;;;;15.10;6.22;;;18.90;99.90;;;;;;5037239;28;20036;-58
2023/10/13 10:25:34;;;;;;;15.80;7.20;;;18.80;99.90;;;;;;5050905;28;20033;-59
2023/10/13 10:28:08;;;;;;;14.82;6.45;;;19.20;99.90;;;;;;5055356;28;20503;-59
2023/10/13 10:30:38;;;;;;;16.93;7.53;;;19.10;99.90;;;;;;5053201;28;20115;-59
2023/10/13 10:33:15;;;;;;;15.65;6.78;;;19.00;99.90;;;;;;5051223;28;20256;-59
2023/10/13 10:35:58;;;;;;;13.10;6.53;;;19.00;99.90;;;;;;5054277;28;20045;-58
2023/10/13 10:38:32;;;;;;;14.63;7.00;;;18.80;99.90;;;;;;5037333;28;20040;-58
2023/10/13 10:41:04;;;;;;;14.95;6.60;;;19.10;99.90;;;;;;5021769;28;20051;-59
2023/10/13 10:43:42;;;;;;;19.00;6.88;;;18.70;99.90;;;;;;5053349;28;20033;-59
2023/10/13 10:46:28;;;;;;;18.42;6.82;;;19.10;99.90;;;;;;5050535;28;20045;-58
2023/10/13 10:49:00;;;;;;;16.38;6.45;;;19.10;99.90;;;;;;5019206;28;20191;-58
2023/10/13 10:51:31;;;;;;;15.10;6.70;;;19.20;99.90;;;;;;5050940;28;20039;-58
2023/10/13 10:53:57;;;;;;;14.15;6.70;;;18.80;99.90;;;;;;5054687;28;20032;-59
2023/10/13 10:56:36;;;;;;;15.90;6.65;;;19.20;99.90;;;;;;5052646;28;20463;-58
2023/10/13 10:59:06;;;;;;;19.85;6.57;;;19.20;99.90;;;;;;5052310;28;20041;-58
2023/10/13 11:01:43;;;;;;;16.55;7.35;;;19.10;99.90;;;;;;5053228;28;20551;-59
2023/10/13 11:04:18;;;;;;;13.35;6.88;;;19.20;99.90;;;;;;5053336;28;20039;-58
2023/10/13 11:06:57;;;;;;;14.15;6.47;;;19.30;99.90;;;;;;5050842;28;20500;-58
2023/10/13 11:12:16;;;;;;;14.93;6.65;;;19.30;99.90;;;;;;5048625;28;20047;-58
2023/10/13 11:14:47;;;;;;;13.82;6.10;;;19.40;99.90;;;;;;5050548;28;20400;-59
2023/10/13 11:20:25;;;;;;;17.15;6.07;;;19.10;99.90;;;;;;5053267;28;20040;-59
2023/10/13 11:22:52;;;;;;;19.85;7.03;;;19.40;99.90;;;;;;5051078;28;20047;-58
2023/10/13 11:25:35;;;;;;;16.13;6.47;;;19.30;99.90;;;;;;5049237;28;20055;-58
2023/10/13 11:28:17;;;;;;;16.58;7.28;;;19.50;99.90;;;;;;5050123;28;20486;-59
2023/10/13 11:30:49;;;;;;;16.08;6.50;;;19.70;99.90;;;;;;5056940;28;20056;-58
2023/10/13 11:33:29;;;;;;;15.95;6.30;;;19.70;99.90;;;;;;5041311;28;20093;-58
2023/10/13 11:35:55;;;;;;;14.13;5.97;;;19.60;99.90;;;;;;5052733;28;20055;-58
2023/10/13 11:38:29;;;;;;;15.27;6.10;;;19.80;99.90;;;;;;5051646;28;21293;-59
2023/10/13 11:48:41;;;;;;;18.15;6.45;;;19.70;99.90;;;;;;5052011;28;20057;-58
2023/10/13 11:51:32;;;;;;;12.38;6.18;;;19.50;99.90;;;;;;5050049;28;20049;-58
2023/10/13 11:53:58;;;;;;;15.52;6.15;;;19.60;99.90;;;;;;5052380;28;20127;-58
2023/10/13 11:56:24;;;;;;;14.65;6.40;;;19.70;99.90;;;;;;5036127;28;20555;-58
2023/10/13 11:58:51;;;;;;;16.17;6.70;;;19.70;99.90;;;;;;5037030;28;20373;-58
2023/10/13 12:06:46;;;;;;;16.77;6.57;;;19.70;99.90;;;;;;5051745;28;20049;-58
2023/10/13 12:11:41;;;;;;;14.95;7.13;;;19.60;99.90;;;;;;5051576;28;20044;-58
2023/10/13 12:14:17;;;;;;;15.82;6.00;;;19.70;99.90;;;;;;5036386;28;20476;-58
2023/10/13 12:16:51;;;;;;;14.95;6.50;;;19.70;99.90;;;;;;5051198;28;20048;-58
2023/10/13 12:19:23;;;;;;;15.13;6.75;;;19.70;99.90;;;;;;5033817;28;20487;-58
2023/10/13 12:21:49;;;;;;;15.27;6.50;;;19.70;99.90;;;;;;5051616;28;20047;-58
2023/10/13 12:26:59;;;;;;;20.55;7.25;;;19.80;99.90;;;;;;5054354;28;20422;-57
2023/10/13 12:29:28;;;;;;;21.25;6.32;;;19.80;99.90;;;;;;5051926;28;20025;-58
2023/10/13 12:32:22;;;;;;;17.15;6.53;;;19.80;99.90;;;;;;5053584;28;20087;-58
2023/10/13 12:51:20;;;;;;;17.95;6.40;;;20.00;99.90;;;;;;5054179;28;20040;-58
2023/10/13 12:53:50;;;;;;;16.45;6.80;;;20.00;99.90;;;;;;5057632;28;20129;-59
2023/10/13 12:56:16;;;;;;;15.38;6.40;;;20.10;99.90;;;;;;5053733;28;20389;-56
2023/10/13 12:58:51;;;;;;;16.85;6.28;;;20.00;99.90;;;;;;5036418;28;20063;-57
2023/10/13 13:01:21;;;;;;;13.48;6.68;;;20.00;99.90;;;;;;5054786;28;20033;-57
2023/10/13 13:03:55;;;;;;;16.77;6.20;;;20.00;99.90;;;;;;5053723;28;20037;-57
2023/10/13 13:06:24;;;;;;;17.25;6.80;;;20.10;99.90;;;;;;5050876;28;20044;-58
2023/10/13 13:09:00;;;;;;;12.60;6.20;;;20.10;99.90;;;;;;5054098;28;20069;-57
2023/10/13 13:11:29;;;;;;;15.80;6.70;;;20.10;99.90;;;;;;5058916;28;20067;-58
2023/10/13 13:13:55;;;;;;;13.38;5.93;;;20.10;99.90;;;;;;5039656;28;20037;-58
2023/10/13 13:16:30;;;;;;;17.42;6.78;;;20.10;99.90;;;;;;5044281;28;20095;-57
2023/10/13 13:18:56;;;;;;;18.15;6.38;;;20.20;99.90;;;;;;5054441;28;20483;-58
2023/10/13 13:21:24;;;;;;;16.13;6.47;;;20.10;99.90;;;;;;5053519;28;20028;-57
2023/10/13 13:23:51;;;;;;;15.10;6.90;;;19.90;99.90;;;;;;5054743;28;20037;-58
2023/10/13 13:26:17;;;;;;;17.80;7.07;;;19.90;99.90;;;;;;5055340;28;20385;-57
2023/10/13 13:28:45;;;;;;;15.50;7.07;;;19.80;99.90;;;;;;5054342;28;20119;-58
2023/10/13 13:31:15;;;;;;;18.58;7.80;;;19.60;99.90;;;;;;5054184;28;20032;-59
2023/10/13 13:33:43;;;;;;;20.58;6.93;;;19.60;99.90;;;;;;5054470;28;20036;-58
2023/10/13 13:36:15;;;;;;;18.70;7.10;;;19.30;99.90;;;;;;5038575;28;20462;-58
2023/10/13 13:38:41;;;;;;;20.75;8.38;;;19.20;99.90;;;;;;5055244;28;20036;-58
2023/10/13 13:41:16;;;;;;;19.50;8.65;;;19.10;99.90;;;;;;5048804;28;20037;-58
2023/10/13 13:43:55;;;;;;;19.10;7.88;;;19.10;99.90;;;;;;5043261;28;20139;-58
2023/10/13 13:46:27;;;;;;;17.98;8.35;;;19.00;99.90;;;;;;5041014;28;20044;-58
2023/10/13 13:49:00;;;;;;;20.00;8.02;;;19.00;99.90;;;;;;5053088;28;20204;-58
2023/10/13 13:51:27;;;;;;;19.08;8.65;;;19.00;99.90;;;;;;5036052;28;20036;-58
2023/10/13 13:53:54;;;;;;;17.75;8.23;;;19.00;99.90;;;;;;5052269;28;20067;-58
2023/10/13 13:56:20;;;;;;;21.55;8.90;;;18.90;99.90;;;;;;5043812;28;20082;-58
2023/10/13 13:58:50;;;;;;;16.83;8.68;;;18.90;99.90;;;;;;5054925;28;20060;-58
2023/10/13 14:01:18;;;;;;;16.85;8.68;;;18.80;99.90;;;;;;5054283;28;20033;-58
2023/10/13 14:03:45;;;;;;;17.23;8.85;;;18.80;99.90;;;;;;5040267;28;20357;-59
2023/10/13 14:06:21;;;;;;;19.85;8.52;;;18.80;99.90;;;;;;5054313;28;20060;-58
2023/10/13 14:08:56;;;;;;;19.38;8.52;;;18.90;99.90;;;;;;5020648;28;20054;-58
2023/10/13 14:14:04;;;;;;;19.75;8.55;;;18.90;99.90;;;;;;5053038;28;20385;-58
2023/10/13 14:16:33;;;;;;;17.25;9.05;;;18.90;99.90;;;;;;5052287;28;20110;-58
2023/10/13 14:19:02;;;;;;;18.17;9.00;;;18.90;99.90;;;;;;5051482;28;20037;-59
2023/10/13 14:21:28;;;;;;;21.85;8.35;;;18.80;99.90;;;;;;5046380;28;20078;-59
2023/10/13 14:23:53;;;;;;;17.55;8.63;;;18.80;99.90;;;;;;5053223;28;20079;-58
2023/10/13 14:26:21;;;;;;;17.00;8.30;;;18.80;99.90;;;;;;5054169;28;20048;-58
2023/10/13 14:29:05;;;;;;;17.50;8.70;;;18.70;99.90;;;;;;5052178;28;20037;-58
2023/10/13 14:31:32;;;;;;;19.77;8.10;;;18.80;99.90;;;;;;5053368;28;20070;-58
2023/10/13 14:33:58;;;;;;;17.40;8.60;;;18.80;99.90;;;;;;5054055;28;20083;-58
2023/10/13 14:36:28;;;;;;;17.98;8.00;;;19.00;99.90;;;;;;5054372;28;20045;-58
2023/10/13 14:38:55;;;;;;;14.93;7.85;;;18.80;99.90;;;;;;5053359;28;20041;-59
2023/10/13 14:41:21;;;;;;;22.45;9.02;;;18.90;99.90;;;;;;5054438;28;20028;-60
2023/10/13 14:43:49;;;;;;;20.08;8.95;;;18.90;99.90;;;;;;5052595;28;20031;-59
2023/10/13 14:46:22;;;;;;;21.90;8.90;;;19.00;99.90;;;;;;5041250;28;20032;-59
2023/10/13 14:48:52;;;;;;;19.50;9.23;;;18.90;99.90;;;;;;5052933;28;20458;-60
2023/10/13 14:51:18;;;;;;;16.40;8.85;;;18.70;99.90;;;;;;5051617;28;20043;-60
2023/10/13 14:53:44;;;;;;;20.15;9.05;;;18.80;99.90;;;;;;5036955;28;20464;-60
2023/10/13 14:56:16;;;;;;;17.08;9.40;;;18.80;99.90;;;;;;5055211;28;20047;-60
2023/10/13 14:58:43;;;;;;;19.15;9.27;;;18.70;99.90;;;;;;5052265;28;20060;-60
2023/10/13 15:01:16;;;;;;;17.77;9.60;;;18.60;99.90;;;;;;5054535;28;20397;-60
2023/10/13 15:03:46;;;;;;;18.83;10.30;;;18.60;99.90;;;;;;5055527;28;20045;-60
2023/10/13 15:06:18;;;;;;;18.27;9.40;;;18.50;99.90;;;;;;5049905;28;20061;-59
2023/10/13 15:08:48;;;;;;;18.98;9.75;;;18.70;99.90;;;;;;5054201;28;20480;-59
2023/10/13 15:11:14;;;;;;;20.58;9.90;;;18.60;99.90;;;;;;5052757;28;20051;-60
2023/10/13 15:13:41;;;;;;;19.48;10.13;;;18.60;99.90;;;;;;5057142;28;20043;-60
2023/10/13 15:16:21;;;;;;;22.58;10.48;;;18.10;99.90;;;;;;5054433;28;20048;-60
2023/10/13 15:18:51;;;;;;;22.63;10.88;;;18.50;99.90;;;;;;5036152;28;20511;-61
2023/10/13 15:21:42;;;;;;;17.83;10.30;;;18.10;99.90;;;;;;5056618;28;20033;-59
2023/10/13 15:24:13;;;;;;;20.90;11.13;;;18.20;99.90;;;;;;5052055;28;20052;-59
2023/10/13 15:26:41;;;;;;;18.48;11.30;;;18.10;99.90;;;;;;5053839;28;20517;-59
2023/10/13 15:29:12;;;;;;;21.10;12.10;;;18.10;99.90;;;;;;5058129;28;20459;-60
2023/10/13 15:31:41;;;;;;;23.70;11.30;;;18.20;99.90;;;;;;5056519;28;20037;-60
2023/10/13 15:34:14;;;;;;;20.45;11.30;;;17.90;99.90;;;;;;5056449;28;20521;-60
2023/10/13 15:36:44;;;;;;;21.20;11.57;;;18.10;99.90;;;;;;5038892;28;20040;-60
2023/10/13 15:39:10;;;;;;;17.27;10.93;;;18.10;99.90;;;;;;5057079;28;20028;-60
2023/10/13 15:41:40;;;;;;;20.45;11.27;;;17.80;99.90;;;;;;5036508;28;20064;-60
2023/10/13 15:44:10;;;;;;;20.02;10.10;;;17.90;99.90;;;;;;5054886;28;20063;-60
2023/10/13 15:46:36;;;;;;;19.70;9.00;;;17.80;99.90;;;;;;5055797;28;20029;-60
2023/10/13 15:49:05;;;;;;;15.40;7.47;;;17.80;99.90;;;;;;5056685;28;20128;-59
2023/10/13 15:51:37;;;;;;;13.50;7.07;;;17.80;99.90;;;;;;5057086;28;20037;-59
2023/10/13 15:54:04;;;;;;;11.30;6.10;;;18.00;99.90;;;;;;5054672;28;20032;-59
2023/10/13 15:56:35;;;;;;;13.20;6.45;;;17.80;99.90;;;;;;5039938;28;20037;-59
2023/10/13 15:59:01;;;;;;;16.58;5.75;;;17.80;99.90;;;;;;5037473;28;20033;-59
2023/10/13 16:01:28;;;;;;;12.48;6.32;;;17.90;99.90;;;;;;5051662;28;20448;-59
2023/10/13 16:03:54;;;;;;;13.20;6.60;;;18.20;99.90;;;;;;5044585;28;20107;-60
2023/10/13 16:06:25;;;;;;;11.30;6.78;;;18.30;99.90;;;;;;5051487;28;20077;-60
2023/10/13 16:08:52;;;;;;;17.02;7.35;;;18.30;99.90;;;;;;5054590;28;20037;-60
2023/10/13 16:11:18;;;;;;;13.88;6.78;;;18.30;99.90;;;;;;5053227;28;20037;-59
2023/10/13 16:13:45;;;;;;;12.05;7.20;;;17.80;99.90;;;;;;5050511;28;20412;-59
2023/10/13 16:16:25;;;;;;;12.82;7.05;;;17.80;99.90;;;;;;5058881;28;20036;-60
2023/10/13 16:18:51;;;;;;;11.93;7.05;;;18.10;99.90;;;;;;5063583;28;20040;-59
2023/10/13 16:21:18;;;;;;;13.82;7.85;;;17.80;99.90;;;;;;5059189;28;20033;-59
2023/10/13 16:23:48;;;;;;;13.32;8.43;;;18.10;99.90;;;;;;5054996;28;20052;-59
2023/10/13 16:26:22;;;;;;;18.38;9.68;;;17.70;99.90;;;;;;5057726;28;20112;-59
2023/10/13 16:28:53;;;;;;;20.35;10.48;;;18.40;99.90;;;;;;5038175;28;20049;-60
2023/10/13 16:31:23;;;;;;;19.30;10.82;;;17.70;99.90;;;;;;5058679;28;20045;-59
2023/10/13 16:33:49;;;;;;;19.92;11.48;;;17.80;99.90;;;;;;5060828;28;20077;-59
2023/10/13 16:36:14;;;;;;;26.40;13.27;;;18.30;99.90;;;;;;5066464;28;20622;-58
2023/10/13 16:38:41;;;;;;;17.45;11.73;;;18.30;99.90;;;;;;5054910;28;20044;-59
2023/10/13 16:41:12;;;;;;;20.48;11.50;;;18.00;99.90;;;;;;5061327;28;20589;-59
2023/10/13 16:43:39;;;;;;;21.83;11.93;;;17.70;99.90;;;;;;5055816;28;23158;-59
2023/10/13 16:46:11;;;;;;;23.55;11.18;;;17.80;99.90;;;;;;5056420;28;20358;-58
2023/10/13 16:48:40;;;;;;;21.60;10.57;;;18.10;99.90;;;;;;5048425;28;20056;-59